createdAt,value
2022-10-14T00:01:18.871Z,99.99
2022-10-14T00:03:47.352Z,99.99
2022-10-14T00:06:20.299Z,99.99
2022-10-14T00:08:48.466Z,99.99
2022-10-14T00:11:18.570Z,99.99
2022-10-14T00:13:47.087Z,99.99
2022-10-14T00:16:23.235Z,99.99
2022-10-14T00:18:51.945Z,99.99
2022-10-14T00:21:20.240Z,99.99
2022-10-14T00:23:48.420Z,99.99
2022-10-14T00:26:18.896Z,99.99
2022-10-14T00:28:47.210Z,99.99
2022-10-14T00:31:15.980Z,99.99
2022-10-14T00:33:47.951Z,99.99
2022-10-14T00:36:18.023Z,99.99
2022-10-14T00:38:46.434Z,99.99
2022-10-14T00:41:17.837Z,99.99
2022-10-14T00:44:00.279Z,99.99
2022-10-14T00:46:30.130Z,99.99
2022-10-14T00:49:08.929Z,99.99
2022-10-14T00:51:39.630Z,99.99
2022-10-14T00:54:08.487Z,99.99
2022-10-14T00:56:37.245Z,99.99
2022-10-14T00:59:09.144Z,99.99
2022-10-14T01:01:37.137Z,99.99
2022-10-14T01:04:07.525Z,99.99
2022-10-14T01:06:45.608Z,99.99
2022-10-14T01:09:25.086Z,99.99
2022-10-14T01:12:27.621Z,99.99
2022-10-14T01:14:59.919Z,99.99
2022-10-14T01:17:37.331Z,99.99
2022-10-14T01:20:39.823Z,99.99
2022-10-14T01:23:28.544Z,99.99
2022-10-14T01:26:03.206Z,99.99
2022-10-14T01:28:42.583Z,99.99
2022-10-14T01:31:14.249Z,99.99
2022-10-14T01:33:46.115Z,99.99
2022-10-14T01:36:21.531Z,99.99
2022-10-14T01:38:52.983Z,99.99
2022-10-14T01:41:24.455Z,99.99
2022-10-14T01:43:53.685Z,99.99
2022-10-14T01:46:25.758Z,99.99
2022-10-14T01:48:57.304Z,99.99
2022-10-14T01:51:30.432Z,99.99
2022-10-14T01:54:02.909Z,99.99
2022-10-14T01:56:36.971Z,99.99
2022-10-14T01:59:09.647Z,99.99
2022-10-14T02:01:39.249Z,99.99
2022-10-14T02:04:15.850Z,99.99
2022-10-14T02:06:49.697Z,99.99
2022-10-14T02:09:23.865Z,99.99
2022-10-14T02:12:04.020Z,99.99
2022-10-14T02:14:40.552Z,99.99
2022-10-14T02:17:18.528Z,99.99
2022-10-14T02:19:53.671Z,99.99
2022-10-14T02:22:29.879Z,99.99
2022-10-14T02:25:01.628Z,99.99
2022-10-14T02:27:30.428Z,99.99
2022-10-14T02:30:00.631Z,99.99
2022-10-14T02:32:30.879Z,99.99
2022-10-14T02:35:00.687Z,99.99
2022-10-14T02:37:30.689Z,99.99
2022-10-14T02:40:04.232Z,99.99
2022-10-14T02:42:33.351Z,99.99
2022-10-14T02:45:04.252Z,99.99
2022-10-14T02:47:33.650Z,99.99
2022-10-14T02:50:01.664Z,99.99
2022-10-14T02:52:31.012Z,99.99
2022-10-14T02:54:59.288Z,99.99
2022-10-14T02:57:27.320Z,99.99
2022-10-14T02:59:58.235Z,99.99
2022-10-14T03:02:26.520Z,99.99
2022-10-14T03:04:56.030Z,99.99
2022-10-14T03:07:25.060Z,99.99
2022-10-14T03:09:54.456Z,99.99
2022-10-14T03:12:24.965Z,99.99
2022-10-14T03:14:55.739Z,99.99
2022-10-14T03:17:25.991Z,99.99
2022-10-14T03:19:59.301Z,99.99
2022-10-14T03:22:28.545Z,99.99
2022-10-14T03:24:57.502Z,99.99
2022-10-14T03:27:35.219Z,99.99
2022-10-14T03:30:10.020Z,99.99
2022-10-14T03:32:45.700Z,99.99
2022-10-14T03:35:33.058Z,99.99
2022-10-14T03:38:03.995Z,99.99
2022-10-14T03:40:35.619Z,99.99
2022-10-14T03:43:08.908Z,99.99
2022-10-14T03:45:46.536Z,99.99
2022-10-14T03:48:17.405Z,99.99
2022-10-14T03:50:48.119Z,99.99
2022-10-14T03:53:16.611Z,99.99
2022-10-14T03:55:45.291Z,99.99
2022-10-14T03:58:14.469Z,99.99
2022-10-14T04:00:49.353Z,99.99
2022-10-14T04:03:37.558Z,99.99
2022-10-14T04:06:07.307Z,99.99
2022-10-14T04:08:35.243Z,99.99
2022-10-14T04:11:16.841Z,99.99
2022-10-14T04:13:46.401Z,99.99
2022-10-14T04:16:16.008Z,99.99
2022-10-14T04:19:03.736Z,99.99
2022-10-14T04:21:33.988Z,99.99
2022-10-14T04:24:07.396Z,99.99
2022-10-14T04:26:42.543Z,99.99
2022-10-14T04:29:17.534Z,99.99
2022-10-14T04:31:56.742Z,99.99
2022-10-14T04:34:25.190Z,99.99
2022-10-14T04:36:55.783Z,99.99
2022-10-14T04:39:35.567Z,99.99
2022-10-14T04:42:03.772Z,99.99
2022-10-14T04:44:32.030Z,99.99
2022-10-14T04:47:02.240Z,99.99
2022-10-14T04:49:31.278Z,99.99
2022-10-14T04:52:13.350Z,99.99
2022-10-14T04:54:48.944Z,99.99
2022-10-14T04:57:16.884Z,99.99
2022-10-14T04:59:48.939Z,99.99
2022-10-14T05:02:37.127Z,99.99
2022-10-14T05:05:05.544Z,99.99
2022-10-14T05:07:38.773Z,99.99
2022-10-14T05:10:30.481Z,99.99
2022-10-14T05:12:58.726Z,99.99
2022-10-14T05:15:30.937Z,99.99
2022-10-14T05:18:06.411Z,99.99
2022-10-14T05:20:50.597Z,99.99
2022-10-14T05:23:25.108Z,99.99
2022-10-14T05:25:53.533Z,99.99
2022-10-14T05:28:23.329Z,99.99
2022-10-14T05:30:51.861Z,99.99
2022-10-14T05:33:21.108Z,99.99
2022-10-14T05:36:04.668Z,99.99
2022-10-14T05:38:36.603Z,99.99
2022-10-14T05:41:05.250Z,99.99
2022-10-14T05:43:33.700Z,99.99
2022-10-14T05:46:04.566Z,99.99
2022-10-14T05:48:37.865Z,99.99
2022-10-14T05:51:07.134Z,99.99
2022-10-14T05:53:39.949Z,99.99
2022-10-14T05:56:13.262Z,99.99
2022-10-14T05:58:42.132Z,99.99
2022-10-14T06:01:11.913Z,99.99
2022-10-14T06:03:42.528Z,99.99
2022-10-14T06:06:13.297Z,99.99
2022-10-14T06:08:43.187Z,99.99
2022-10-14T06:11:11.126Z,99.99
2022-10-14T06:13:39.977Z,99.99
2022-10-14T06:16:10.936Z,99.99
2022-10-14T06:18:39.369Z,99.99
2022-10-14T06:21:08.260Z,99.99
2022-10-14T06:23:36.656Z,99.99
2022-10-14T06:26:08.995Z,99.99
2022-10-14T06:28:37.615Z,99.99
2022-10-14T06:31:06.972Z,99.99
2022-10-14T06:33:35.067Z,99.99
2022-10-14T06:36:04.143Z,99.99
2022-10-14T06:38:32.256Z,99.99
2022-10-14T06:41:00.396Z,99.99
2022-10-14T06:43:30.060Z,99.99
2022-10-14T06:45:58.790Z,99.99
2022-10-14T06:48:26.759Z,99.99
2022-10-14T06:50:54.837Z,99.99
2022-10-14T06:53:22.737Z,99.99
2022-10-14T06:55:50.708Z,99.99
2022-10-14T06:58:18.567Z,99.99
2022-10-14T07:00:48.392Z,99.99
2022-10-14T07:03:16.530Z,99.99
2022-10-14T07:05:44.481Z,99.99
2022-10-14T07:08:15.287Z,99.99
2022-10-14T07:10:44.014Z,99.99
2022-10-14T07:13:11.924Z,99.99
2022-10-14T07:15:40.005Z,99.99
2022-10-14T07:18:09.767Z,99.99
2022-10-14T07:20:37.741Z,99.99
2022-10-14T07:23:05.651Z,99.99
2022-10-14T07:25:34.019Z,99.99
2022-10-14T07:28:01.991Z,99.99
2022-10-14T07:30:30.107Z,99.99
2022-10-14T07:32:57.966Z,99.99
2022-10-14T07:35:27.819Z,99.99
2022-10-14T07:37:56.427Z,99.99
2022-10-14T07:40:24.728Z,99.99
2022-10-14T07:42:53.035Z,99.99
2022-10-14T07:45:21.317Z,99.99
2022-10-14T07:47:51.879Z,99.99
2022-10-14T07:50:20.801Z,99.99
2022-10-14T07:52:50.322Z,99.99
2022-10-14T07:55:18.350Z,99.99
2022-10-14T07:57:46.302Z,99.99
2022-10-14T08:00:14.553Z,99.99
2022-10-14T08:02:42.506Z,99.99
2022-10-14T08:05:36.490Z,99.99
2022-10-14T08:07:59.852Z,99.99
2022-10-14T08:10:27.952Z,99.99
2022-10-14T08:12:57.814Z,99.99
2022-10-14T08:15:28.569Z,99.99
2022-10-14T08:17:56.520Z,99.99
2022-10-14T08:20:24.423Z,99.99
2022-10-14T08:22:52.584Z,99.99
2022-10-14T08:25:22.392Z,99.99
2022-10-14T08:27:50.624Z,99.99
2022-10-14T08:30:19.183Z,99.99
2022-10-14T08:32:47.244Z,99.99
2022-10-14T08:35:16.624Z,99.99
2022-10-14T08:37:44.543Z,99.99
2022-10-14T08:40:17.266Z,99.99
2022-10-14T08:42:55.329Z,99.99
2022-10-14T08:45:31.165Z,99.99
2022-10-14T08:48:01.345Z,99.99
2022-10-14T08:50:37.031Z,99.99
2022-10-14T08:53:11.362Z,99.99
2022-10-14T08:55:42.193Z,99.99
2022-10-14T08:58:15.685Z,99.99
2022-10-14T09:00:46.871Z,99.99
2022-10-14T09:03:22.625Z,99.99
2022-10-14T09:05:58.593Z,99.99
2022-10-14T09:08:31.847Z,99.99
2022-10-14T09:11:01.383Z,99.99
2022-10-14T09:13:35.625Z,99.99
2022-10-14T09:16:07.182Z,99.99
2022-10-14T09:18:39.691Z,99.99
2022-10-14T09:21:34.124Z,99.99
2022-10-14T09:24:15.274Z,99.99
2022-10-14T09:26:45.073Z,99.99
2022-10-14T09:29:25.285Z,99.99
2022-10-14T09:31:54.588Z,99.99
2022-10-14T09:34:30.645Z,99.99
2022-10-14T09:37:01.868Z,99.45
2022-10-14T09:39:31.055Z,99.80
2022-10-14T09:42:00.540Z,99.73
2022-10-14T09:44:29.841Z,99.49
2022-10-14T09:46:59.375Z,98.68
2022-10-14T09:49:36.797Z,99.05
2022-10-14T09:52:06.771Z,99.37
2022-10-14T09:54:35.498Z,99.92
2022-10-14T09:57:07.392Z,98.41
2022-10-14T09:59:39.869Z,98.17
2022-10-14T10:02:22.134Z,96.00
2022-10-14T10:04:52.325Z,95.75
2022-10-14T10:07:32.523Z,94.63
2022-10-14T10:10:02.576Z,93.88
2022-10-14T10:12:32.692Z,94.68
2022-10-14T10:15:04.852Z,95.77
2022-10-14T10:17:36.120Z,96.37
2022-10-14T10:20:12.419Z,96.74
2022-10-14T10:22:41.824Z,96.65
2022-10-14T10:25:28.245Z,96.67
2022-10-14T10:28:00.491Z,96.24
2022-10-14T10:30:33.234Z,96.30
2022-10-14T10:33:21.283Z,97.50
2022-10-14T10:36:11.170Z,96.46
2022-10-14T10:38:46.455Z,95.13
2022-10-14T10:41:28.488Z,91.79
2022-10-14T10:44:26.731Z,91.73
2022-10-14T10:47:09.600Z,92.30
2022-10-14T10:50:08.363Z,94.29
2022-10-14T10:52:50.607Z,93.86
2022-10-14T10:55:27.065Z,92.66
2022-10-14T10:58:07.523Z,91.91
2022-10-14T11:00:49.637Z,90.64
2022-10-14T11:03:34.295Z,90.09
2022-10-14T11:06:10.167Z,92.00
2022-10-14T11:09:08.598Z,91.65
2022-10-14T11:12:12.739Z,93.23
2022-10-14T11:17:52.410Z,92.08
2022-10-14T11:20:33.805Z,91.43
2022-10-14T11:23:20.163Z,91.69
2022-10-14T11:25:56.564Z,89.70
2022-10-14T11:28:36.604Z,91.16
2022-10-14T11:31:10.116Z,90.35
2022-10-14T11:33:59.317Z,90.54
2022-10-14T11:36:37.727Z,90.34
2022-10-14T11:39:28.702Z,88.30
2022-10-14T11:42:11.320Z,87.02
2022-10-14T11:44:40.446Z,87.41
2022-10-14T11:47:13.921Z,87.29
2022-10-14T11:49:47.135Z,87.27
2022-10-14T11:52:22.424Z,88.33
2022-10-14T11:54:56.543Z,88.13
2022-10-14T11:57:31.947Z,85.26
2022-10-14T12:00:21.066Z,85.85
2022-10-14T12:02:57.201Z,85.42
2022-10-14T12:05:36.595Z,86.88
2022-10-14T12:08:16.953Z,85.82
2022-10-14T12:10:48.075Z,86.03
2022-10-14T12:13:20.876Z,86.04
2022-10-14T12:15:51.639Z,86.33
2022-10-14T12:18:20.411Z,85.62
2022-10-14T12:20:53.448Z,86.47
2022-10-14T12:23:30.865Z,86.65
2022-10-14T12:26:05.351Z,86.34
2022-10-14T12:28:38.652Z,87.44
2022-10-14T12:31:35.489Z,87.31
2022-10-14T12:34:34.808Z,86.92
2022-10-14T12:37:37.827Z,86.60
2022-10-14T12:40:30.175Z,87.49
2022-10-14T12:43:07.348Z,88.43
2022-10-14T12:45:36.869Z,84.78
2022-10-14T12:48:13.379Z,83.04
2022-10-14T12:50:42.687Z,84.99
2022-10-14T12:53:23.427Z,88.05
2022-10-14T12:55:57.364Z,89.85
2022-10-14T12:58:31.711Z,87.97
2022-10-14T13:01:03.661Z,88.36
2022-10-14T13:03:35.675Z,86.16
2022-10-14T13:06:43.374Z,89.01
2022-10-14T13:09:42.203Z,88.35
2022-10-14T13:12:45.270Z,88.08
2022-10-14T13:15:36.972Z,87.78
2022-10-14T13:18:51.321Z,87.84
2022-10-14T13:21:48.656Z,87.21
2022-10-14T13:24:21.872Z,87.93
2022-10-14T13:27:07.123Z,88.31
2022-10-14T13:29:48.703Z,89.32
2022-10-14T13:32:31.407Z,88.67
2022-10-14T13:35:11.725Z,88.65
2022-10-14T13:37:45.707Z,89.40
2022-10-14T13:40:22.721Z,91.22
2022-10-14T13:42:54.285Z,89.70
2022-10-14T13:45:29.798Z,88.82
2022-10-14T13:47:58.026Z,89.23
2022-10-14T13:50:33.093Z,88.37
2022-10-14T13:53:04.947Z,88.92
2022-10-14T13:55:45.028Z,88.46
2022-10-14T13:58:15.874Z,89.17
2022-10-14T14:00:53.737Z,89.12
2022-10-14T14:03:25.825Z,88.73
2022-10-14T14:05:55.291Z,88.40
2022-10-14T14:08:39.873Z,88.86
2022-10-14T14:11:16.930Z,89.81
2022-10-14T14:13:55.896Z,89.32
2022-10-14T14:16:31.270Z,88.55
2022-10-14T14:19:14.868Z,88.68
2022-10-14T14:21:43.446Z,89.88
2022-10-14T14:24:23.587Z,89.20
2022-10-14T14:26:55.030Z,90.43
2022-10-14T14:29:27.979Z,91.23
2022-10-14T14:32:07.130Z,92.07
2022-10-14T14:34:39.045Z,90.99
2022-10-14T14:37:37.087Z,91.39
2022-10-14T14:40:06.869Z,90.56
2022-10-14T14:42:37.559Z,91.86
2022-10-14T14:45:08.805Z,91.55
2022-10-14T14:47:39.466Z,91.33
2022-10-14T14:53:02.306Z,92.75
2022-10-14T14:55:41.545Z,93.09
2022-10-14T14:58:25.094Z,92.92
2022-10-14T15:00:54.911Z,94.18
2022-10-14T15:03:27.580Z,94.14
2022-10-14T15:06:00.490Z,93.77
2022-10-14T15:08:31.242Z,94.50
2022-10-14T15:11:01.278Z,94.64
2022-10-14T15:13:45.710Z,93.82
2022-10-14T15:16:13.731Z,93.49
2022-10-14T15:18:43.635Z,93.26
2022-10-14T15:21:19.351Z,95.32
2022-10-14T15:24:03.160Z,97.69
2022-10-14T15:26:34.557Z,98.98
2022-10-14T15:32:04.460Z,99.99
2022-10-14T15:34:35.671Z,99.99
2022-10-14T15:37:03.669Z,99.99
2022-10-14T15:39:31.624Z,99.99
2022-10-14T15:41:59.756Z,99.99
2022-10-14T15:44:28.020Z,99.99
2022-10-14T15:47:15.414Z,99.99
2022-10-14T15:49:47.466Z,99.99
2022-10-14T15:52:20.574Z,99.99
2022-10-14T15:54:51.219Z,99.99
2022-10-14T15:57:19.110Z,99.99
2022-10-14T15:59:52.003Z,99.99
2022-10-14T16:02:24.115Z,99.99
2022-10-14T16:07:42.493Z,99.99
2022-10-14T16:10:14.320Z,99.99
2022-10-14T16:12:42.795Z,99.99
2022-10-14T16:15:20.979Z,99.99
2022-10-14T16:17:52.081Z,99.99
2022-10-14T16:20:23.690Z,99.99
2022-10-14T16:22:51.616Z,99.99
2022-10-14T16:25:24.128Z,99.99
2022-10-14T16:27:52.618Z,99.99
2022-10-14T16:30:20.789Z,99.99
2022-10-14T16:32:48.951Z,99.99
2022-10-14T16:35:17.096Z,99.99
2022-10-14T16:37:48.891Z,99.99
2022-10-14T16:40:16.907Z,99.99
2022-10-14T16:42:45.191Z,99.99
2022-10-14T16:45:13.777Z,99.99
2022-10-14T16:47:42.139Z,99.99
2022-10-14T16:50:11.659Z,99.99
2022-10-14T16:52:58.897Z,99.99
2022-10-14T16:55:31.579Z,99.99
2022-10-14T16:57:59.506Z,99.99
2022-10-14T17:00:27.470Z,99.99
2022-10-14T17:02:55.423Z,99.99
2022-10-14T17:05:23.312Z,99.99
2022-10-14T17:07:51.195Z,99.99
2022-10-14T17:10:21.299Z,99.99
2022-10-14T17:12:50.606Z,99.99
2022-10-14T17:15:18.724Z,99.99
2022-10-14T17:17:46.652Z,99.99
2022-10-14T17:20:14.661Z,99.99
2022-10-14T17:22:42.954Z,99.99
2022-10-14T17:25:12.273Z,99.99
2022-10-14T17:27:40.553Z,99.99
2022-10-14T17:30:11.163Z,99.99
2022-10-14T17:32:39.046Z,99.99
2022-10-14T17:35:11.368Z,99.99
2022-10-14T17:37:42.461Z,99.99
2022-10-14T17:40:11.222Z,99.99
2022-10-14T17:42:40.094Z,99.99
2022-10-14T17:45:10.932Z,99.99
2022-10-14T17:47:39.079Z,99.99
2022-10-14T17:50:08.953Z,99.99
2022-10-14T17:52:36.758Z,99.99
2022-10-14T17:55:05.351Z,99.99
2022-10-14T17:57:33.268Z,99.99
2022-10-14T18:00:01.303Z,99.99
2022-10-14T18:02:30.645Z,99.99
2022-10-14T18:04:58.621Z,99.99
2022-10-14T18:07:27.775Z,99.99
2022-10-14T18:09:55.793Z,99.99
2022-10-14T18:12:24.375Z,99.99
2022-10-14T18:14:52.313Z,99.99
2022-10-14T18:17:20.595Z,99.99
2022-10-14T18:19:52.417Z,99.99
2022-10-14T18:22:20.486Z,99.99
2022-10-14T18:24:48.492Z,99.99
2022-10-14T18:27:16.379Z,99.99
2022-10-14T18:29:44.277Z,99.99
2022-10-14T18:32:12.359Z,99.99
2022-10-14T18:34:40.279Z,99.99
2022-10-14T18:37:09.629Z,99.99
2022-10-14T18:39:37.749Z,99.99
2022-10-14T18:42:05.686Z,99.99
2022-10-14T18:44:33.610Z,99.99
2022-10-14T18:47:01.588Z,99.99
2022-10-14T18:49:29.535Z,99.99
2022-10-14T18:51:57.458Z,99.99
2022-10-14T18:54:26.762Z,99.99
2022-10-14T18:56:55.728Z,99.99
2022-10-14T18:59:24.641Z,99.99
2022-10-14T19:01:53.687Z,99.99
2022-10-14T19:04:23.770Z,99.99
2022-10-14T19:06:51.557Z,99.99
2022-10-14T19:09:24.674Z,99.99
2022-10-14T19:11:57.383Z,99.99
2022-10-14T19:14:25.352Z,99.99
2022-10-14T19:16:53.230Z,99.99
2022-10-14T19:19:21.433Z,99.99
2022-10-14T19:21:54.081Z,99.99
2022-10-14T19:24:22.105Z,99.99
2022-10-14T19:26:50.264Z,99.99
2022-10-14T19:29:19.692Z,99.99
2022-10-14T19:31:49.211Z,99.99
2022-10-14T19:34:17.636Z,99.99
2022-10-14T19:36:46.046Z,99.99
2022-10-14T19:39:18.918Z,99.99
2022-10-14T19:41:47.438Z,99.99
2022-10-14T19:44:17.020Z,99.99
2022-10-14T19:46:47.091Z,99.99
2022-10-14T19:49:16.265Z,99.99
2022-10-14T19:51:44.196Z,99.99
2022-10-14T19:54:13.535Z,99.99
2022-10-14T19:56:42.962Z,99.99
2022-10-14T19:59:13.625Z,99.99
2022-10-14T20:01:42.590Z,99.99
2022-10-14T20:04:11.901Z,99.99
2022-10-14T20:06:40.391Z,99.99
2022-10-14T20:09:09.269Z,99.99
2022-10-14T20:11:37.260Z,99.99
2022-10-14T20:14:05.158Z,99.99
2022-10-14T20:16:33.178Z,99.99
2022-10-14T20:19:01.625Z,99.99
2022-10-14T20:21:31.781Z,99.99
2022-10-14T20:24:00.566Z,99.99
2022-10-14T20:26:28.543Z,99.99
2022-10-14T20:28:56.629Z,99.99
2022-10-14T20:31:26.207Z,99.99
2022-10-14T20:33:56.331Z,99.99
2022-10-14T20:36:24.726Z,99.99
2022-10-14T20:38:54.019Z,99.99
2022-10-14T20:41:24.363Z,99.99
2022-10-14T20:43:52.722Z,99.99
2022-10-14T20:46:21.925Z,99.99
2022-10-14T20:48:54.035Z,99.99
2022-10-14T20:51:22.778Z,99.99
2022-10-14T20:53:50.995Z,99.99
2022-10-14T20:56:20.331Z,99.99
2022-10-14T20:58:48.266Z,99.99
2022-10-14T21:01:17.675Z,99.99
2022-10-14T21:03:48.797Z,99.99
2022-10-14T21:06:19.552Z,99.99
2022-10-14T21:08:47.451Z,99.99
2022-10-14T21:11:17.428Z,99.99
2022-10-14T21:13:47.700Z,99.99
2022-10-14T21:16:17.694Z,99.99
2022-10-14T21:18:46.949Z,99.99
2022-10-14T21:21:16.808Z,99.99
2022-10-14T21:23:46.205Z,99.99
2022-10-14T21:26:14.165Z,99.99
2022-10-14T21:28:42.249Z,99.99
2022-10-14T21:31:16.021Z,99.99
2022-10-14T21:33:48.138Z,99.99
2022-10-14T21:36:17.285Z,99.99
2022-10-14T21:38:45.334Z,99.99
2022-10-14T21:41:13.406Z,99.99
2022-10-14T21:43:41.684Z,99.99
2022-10-14T21:46:13.560Z,99.99
2022-10-14T21:48:43.460Z,99.99
2022-10-14T21:51:12.173Z,99.99
2022-10-14T21:53:41.987Z,99.99
2022-10-14T21:56:11.598Z,99.99
2022-10-14T21:58:40.336Z,99.99
2022-10-14T22:01:11.580Z,99.99
2022-10-14T22:03:41.471Z,99.99
2022-10-14T22:06:11.400Z,99.99
2022-10-14T22:08:41.898Z,99.99
2022-10-14T22:11:16.875Z,99.99
2022-10-14T22:13:44.941Z,99.99
2022-10-14T22:16:13.564Z,99.99
2022-10-14T22:18:44.996Z,99.99
2022-10-14T22:21:13.685Z,99.99
2022-10-14T22:23:41.803Z,99.99
2022-10-14T22:26:11.985Z,99.99
2022-10-14T22:28:40.321Z,99.99
2022-10-14T22:31:09.613Z,99.99
2022-10-14T22:33:38.703Z,99.99
2022-10-14T22:36:10.505Z,99.99
2022-10-14T22:38:39.487Z,99.99
2022-10-14T22:41:08.620Z,99.99
2022-10-14T22:43:36.983Z,99.99
2022-10-14T22:46:07.519Z,99.99
2022-10-14T22:48:35.762Z,99.99
2022-10-14T22:51:04.946Z,99.99
2022-10-14T22:53:34.786Z,99.99
2022-10-14T22:56:02.659Z,99.99
2022-10-14T22:58:30.622Z,99.99
2022-10-14T23:01:07.306Z,99.99
2022-10-14T23:03:35.460Z,99.99
2022-10-14T23:06:04.264Z,99.99
2022-10-14T23:08:32.796Z,99.99
2022-10-14T23:11:02.814Z,99.99
2022-10-14T23:13:30.849Z,99.99
2022-10-14T23:15:59.764Z,99.99
2022-10-14T23:18:29.015Z,99.99
2022-10-14T23:20:57.196Z,99.99
2022-10-14T23:23:25.464Z,99.99
2022-10-14T23:25:53.393Z,99.99
2022-10-14T23:28:22.707Z,99.99
2022-10-14T23:30:50.683Z,99.99
2022-10-14T23:33:18.598Z,99.99
2022-10-14T23:35:46.500Z,99.99
2022-10-14T23:38:14.889Z,99.99
2022-10-14T23:40:42.792Z,99.99
2022-10-14T23:43:10.747Z,99.99
2022-10-14T23:45:40.065Z,99.99
2022-10-14T23:48:08.131Z,99.99
2022-10-14T23:50:36.036Z,99.99
2022-10-14T23:53:05.575Z,99.99
2022-10-14T23:55:33.498Z,99.99
2022-10-14T23:58:01.446Z,99.99
